Portada
METAR-TAF:

METAR-TAF

Aeroports :

Tarawa, Kiribati

latitud: 01-21N, longitud: 172-55E, altitud: 2 m

Observació

L'informe es va fer fa 20 minuts, a les 01:00 UTC
Vent 11 kt del Est
Temperatura 31°C
Humitat 66%
Pressió 1008 hPa
Visibilitat 10 km o més
Escasses núvols a una alçada de 1900 ft

METAR: NGTA 220100Z 09011KT 9999 FEW019 31/24 Q1008

Hora: 15:20 (01:20 UTC)

Pronòstic

L'informe es va fer fa 2 hores i 3 minuts, a les 23:17 UTC
Pronòstic vàlid del 22 a les 00 UTC al 22 a les 24 UTC
Vent 13 kt del Est
Visibilitat 10 km o més
Escasses núvols a una alçada de 2000 ft
Probabilitat 40% :
Temporalment
l' 22 a les 00 UTC al 22 a les 06 UTC
Visibilitat: 5000 m
Cel ennuvolat a una alçada de 1500 ft
xàfecs de pluja

TAF: NGTA 212317Z 2200/2224 09013KT 9999 FEW020 PROB40 TEMPO 2200/2206 5000 SHRA BKN015

Observacions i pronòstics meteorològics de més de 4000 aeroports (METAR i TAF).

Les estacions disponibles són els punts grocs i vermells al mapa.

Posi el ratolí al punt desitjat per veure el nom de l'estació.

Feu clic per veure les observacions i els pronòstics meteorològics.

Per canviar el mapa: feu clic els botons verds amb una creu de color negre per apropar; al botó verd amb un guió per allunyar la imatge; o en les fletxes verdes per a mapes adjacents.


METAR-TAF: